createdAt,value
2018-09-04T00:00:13.338Z,13.40
2018-09-04T00:02:41.930Z,13.40
2018-09-04T00:05:10.496Z,13.40
2018-09-04T00:07:39.046Z,13.40
2018-09-04T00:10:08.188Z,13.40
2018-09-04T00:12:37.283Z,13.40
2018-09-04T00:15:05.998Z,13.40
2018-09-04T00:17:34.558Z,13.30
2018-09-04T00:20:03.182Z,13.40
2018-09-04T00:22:31.772Z,13.30
2018-09-04T00:25:00.337Z,13.30
2018-09-04T00:27:28.865Z,13.20
2018-09-04T00:29:57.450Z,13.10
2018-09-04T00:32:25.985Z,13.10
2018-09-04T00:34:54.510Z,13.20
2018-09-04T00:37:23.161Z,13.10
2018-09-04T00:39:51.913Z,13.20
2018-09-04T00:42:20.543Z,13.20
2018-09-04T00:44:49.090Z,13.20
2018-09-04T00:47:17.649Z,13.20
2018-09-04T00:49:46.217Z,13.10
2018-09-04T00:52:14.761Z,13.00
2018-09-04T00:54:43.283Z,12.90
2018-09-04T00:57:11.877Z,12.80
2018-09-04T00:59:40.477Z,12.80
2018-09-04T01:02:09.251Z,12.80
2018-09-04T01:04:38.259Z,12.80
2018-09-04T01:07:06.869Z,12.70
2018-09-04T01:09:35.680Z,12.60
2018-09-04T01:12:04.270Z,12.50
2018-09-04T01:14:32.811Z,12.50
2018-09-04T01:17:01.368Z,12.50
2018-09-04T01:19:29.901Z,12.50
2018-09-04T01:21:58.438Z,12.50
2018-09-04T01:24:27.068Z,12.50
2018-09-04T01:26:55.648Z,12.50
2018-09-04T01:29:24.260Z,12.60
2018-09-04T01:31:52.794Z,12.60
2018-09-04T01:34:21.484Z,12.60
2018-09-04T01:36:50.052Z,12.70
2018-09-04T01:39:18.578Z,12.80
2018-09-04T01:41:47.135Z,12.80
2018-09-04T01:44:15.746Z,12.80
2018-09-04T01:46:44.378Z,12.70
2018-09-04T01:49:12.931Z,12.70
2018-09-04T01:51:41.464Z,12.60
2018-09-04T01:54:10.011Z,12.50
2018-09-04T01:56:38.542Z,12.50
2018-09-04T01:59:07.114Z,12.40
2018-09-04T02:01:36.331Z,12.40
2018-09-04T02:04:04.857Z,12.30
2018-09-04T02:06:33.366Z,12.30
2018-09-04T02:09:01.958Z,12.30
2018-09-04T02:11:30.561Z,12.30
2018-09-04T02:13:59.159Z,12.30
2018-09-04T02:16:27.727Z,12.30
2018-09-04T02:18:56.283Z,12.30
2018-09-04T02:21:24.824Z,12.30
2018-09-04T02:23:53.413Z,12.30
2018-09-04T02:26:21.941Z,12.40
2018-09-04T02:28:50.477Z,12.30
2018-09-04T02:31:19.056Z,12.30
2018-09-04T02:33:47.611Z,12.30
2018-09-04T02:36:16.126Z,12.20
2018-09-04T02:38:44.668Z,12.30
2018-09-04T02:41:13.165Z,12.30
2018-09-04T02:43:41.743Z,12.40
2018-09-04T02:46:10.277Z,12.50
2018-09-04T02:48:38.839Z,12.60
2018-09-04T02:51:07.542Z,12.60
2018-09-04T02:53:36.168Z,12.70
2018-09-04T02:56:04.750Z,12.70
2018-09-04T02:58:33.380Z,12.70
2018-09-04T03:01:02.016Z,12.80
2018-09-04T03:03:30.668Z,12.80
2018-09-04T03:05:59.258Z,12.90
2018-09-04T03:08:27.904Z,12.80
2018-09-04T03:10:56.458Z,12.80
2018-09-04T03:13:25.030Z,12.80
2018-09-04T03:15:53.584Z,12.70
2018-09-04T03:18:22.236Z,12.70
2018-09-04T03:20:50.757Z,12.70
2018-09-04T03:23:19.299Z,12.70
2018-09-04T03:25:47.836Z,12.70
2018-09-04T03:28:16.372Z,12.70
2018-09-04T03:30:44.992Z,12.70
2018-09-04T03:33:13.522Z,12.80
2018-09-04T03:35:42.059Z,12.80
2018-09-04T03:38:10.532Z,12.80
2018-09-04T03:40:39.129Z,12.80
2018-09-04T03:43:07.688Z,12.80
2018-09-04T03:45:36.231Z,12.80
2018-09-04T03:48:05.033Z,12.70
2018-09-04T03:50:33.579Z,12.70
2018-09-04T03:53:02.117Z,12.70
2018-09-04T03:55:30.649Z,12.70
2018-09-04T03:57:59.273Z,12.70
2018-09-04T04:00:27.833Z,12.70
2018-09-04T04:02:56.379Z,12.70
2018-09-04T04:05:24.995Z,12.60
2018-09-04T04:07:53.551Z,12.60
2018-09-04T04:10:22.134Z,12.50
2018-09-04T04:12:50.671Z,12.50
2018-09-04T04:15:19.264Z,12.50
2018-09-04T04:17:47.817Z,12.40
2018-09-04T04:20:16.442Z,12.40
2018-09-04T04:22:45.025Z,12.40
2018-09-04T04:25:13.589Z,12.40
2018-09-04T04:27:42.138Z,12.50
2018-09-04T04:30:10.685Z,12.50
2018-09-04T04:32:39.327Z,12.60
2018-09-04T04:35:07.971Z,12.60
2018-09-04T04:37:36.507Z,12.60
2018-09-04T04:40:05.824Z,12.60
2018-09-04T04:42:34.480Z,12.50
2018-09-04T04:45:02.994Z,12.50
2018-09-04T04:47:36.936Z,12.50
2018-09-04T04:50:05.698Z,12.50
2018-09-04T04:52:34.316Z,12.50
2018-09-04T04:55:02.863Z,12.50
2018-09-04T04:57:31.434Z,12.50
2018-09-04T04:59:59.980Z,12.40
2018-09-04T05:02:28.577Z,12.40
2018-09-04T05:04:57.110Z,12.50
2018-09-04T05:07:25.686Z,12.50
2018-09-04T05:09:54.312Z,12.50
2018-09-04T05:12:23.416Z,12.50
2018-09-04T05:14:52.074Z,12.50
2018-09-04T05:17:21.268Z,12.50
2018-09-04T05:19:49.902Z,12.60
2018-09-04T05:22:18.472Z,12.60
2018-09-04T05:24:47.044Z,12.60
2018-09-04T05:27:15.597Z,12.60
2018-09-04T05:29:44.137Z,12.70
2018-09-04T05:32:33.224Z,12.70
2018-09-04T05:35:01.799Z,12.70
2018-09-04T05:37:30.420Z,12.80
2018-09-04T05:39:58.945Z,12.80
2018-09-04T05:42:31.435Z,12.80
2018-09-04T05:44:59.972Z,12.80
2018-09-04T05:47:32.940Z,12.90
2018-09-04T05:50:02.119Z,12.90
2018-09-04T05:52:30.667Z,13.00
2018-09-04T05:54:59.220Z,13.10
2018-09-04T05:57:27.773Z,13.10
2018-09-04T05:59:56.372Z,13.20
2018-09-04T06:02:24.989Z,13.20
2018-09-04T06:04:53.517Z,13.40
2018-09-04T06:07:22.145Z,13.70
2018-09-04T06:09:50.731Z,13.90
2018-09-04T06:12:19.287Z,14.10
2018-09-04T06:14:47.813Z,14.30
2018-09-04T06:17:16.401Z,14.40
2018-09-04T06:19:44.926Z,14.60
2018-09-04T06:22:13.514Z,14.70
2018-09-04T06:24:42.081Z,14.70
2018-09-04T06:27:10.806Z,14.90
2018-09-04T06:29:39.406Z,15.00
2018-09-04T06:32:07.906Z,15.10
2018-09-04T06:34:36.503Z,15.30
2018-09-04T06:37:05.256Z,15.40
2018-09-04T06:39:33.909Z,15.50
2018-09-04T06:42:02.536Z,15.60
2018-09-04T06:44:31.126Z,15.70
2018-09-04T06:46:59.843Z,15.90
2018-09-04T06:49:28.411Z,16.00
2018-09-04T06:51:57.014Z,16.00
2018-09-04T06:54:25.847Z,16.10
2018-09-04T06:56:54.350Z,16.20
2018-09-04T06:59:22.919Z,16.30
2018-09-04T07:01:51.480Z,16.30
2018-09-04T07:04:20.058Z,16.40
2018-09-04T07:06:48.639Z,16.50
2018-09-04T07:09:17.201Z,16.70
2018-09-04T07:11:45.736Z,16.90
2018-09-04T07:14:14.398Z,16.90
2018-09-04T07:16:43.020Z,17.10
2018-09-04T07:19:16.767Z,17.10
2018-09-04T07:21:45.457Z,17.20
2018-09-04T07:24:14.682Z,17.30
2018-09-04T07:26:43.702Z,17.40
2018-09-04T07:29:12.347Z,17.50
2018-09-04T07:31:41.205Z,17.60
2018-09-04T07:34:09.732Z,17.70
2018-09-04T07:36:38.305Z,17.80
2018-09-04T07:39:09.093Z,17.80
2018-09-04T07:41:37.816Z,17.80
2018-09-04T07:44:06.415Z,18.00
2018-09-04T07:46:35.104Z,18.10
2018-09-04T07:49:03.735Z,18.30
2018-09-04T07:51:32.349Z,18.50
2018-09-04T07:54:01.096Z,18.80
2018-09-04T07:56:29.837Z,18.80
2018-09-04T07:58:58.467Z,18.70
2018-09-04T08:01:27.032Z,18.80
2018-09-04T08:03:55.592Z,18.90
2018-09-04T08:06:24.164Z,19.00
2018-09-04T08:08:52.766Z,18.80
2018-09-04T08:11:21.402Z,18.90
2018-09-04T08:13:49.999Z,19.00
2018-09-04T08:16:18.909Z,19.10
2018-09-04T08:18:47.418Z,19.30
2018-09-04T08:21:15.964Z,19.30
2018-09-04T08:23:44.592Z,19.30
2018-09-04T08:26:13.333Z,19.30
2018-09-04T08:28:41.760Z,19.40
2018-09-04T08:31:10.337Z,19.60
2018-09-04T08:33:38.901Z,19.70
2018-09-04T08:36:07.590Z,19.50
2018-09-04T08:38:41.657Z,19.50
2018-09-04T08:41:10.211Z,19.60
2018-09-04T08:43:38.795Z,19.80
2018-09-04T08:46:07.435Z,19.90
2018-09-04T08:48:36.011Z,19.90
2018-09-04T08:51:04.647Z,20.00
2018-09-04T08:53:33.222Z,19.70
2018-09-04T08:56:01.835Z,19.80
2018-09-04T08:58:30.490Z,19.80
2018-09-04T09:00:59.024Z,20.10
2018-09-04T09:03:27.823Z,20.20
2018-09-04T09:05:56.405Z,20.10
2018-09-04T09:08:25.116Z,20.20
2018-09-04T09:10:53.744Z,20.40
2018-09-04T09:13:22.324Z,20.70
2018-09-04T09:15:51.700Z,20.90
2018-09-04T09:18:20.279Z,21.00
2018-09-04T09:20:49.064Z,20.80
2018-09-04T09:23:17.618Z,20.80
2018-09-04T09:25:46.258Z,20.80
2018-09-04T09:28:14.800Z,20.70
2018-09-04T09:30:43.374Z,20.70
2018-09-04T09:33:12.210Z,20.70
2018-09-04T09:35:40.746Z,20.70
2018-09-04T09:38:09.382Z,20.80
2018-09-04T09:40:38.062Z,20.80
2018-09-04T09:43:06.892Z,20.80
2018-09-04T09:45:35.562Z,20.70
2018-09-04T09:48:04.230Z,20.80
2018-09-04T09:50:32.883Z,20.90
2018-09-04T09:53:01.504Z,21.00
2018-09-04T09:55:30.589Z,21.10
2018-09-04T09:57:59.140Z,21.20
2018-09-04T10:00:33.805Z,21.20
2018-09-04T10:03:05.232Z,21.20
2018-09-04T10:05:33.983Z,21.40
2018-09-04T10:08:02.605Z,21.50
2018-09-04T10:10:31.178Z,21.50
2018-09-04T10:12:59.753Z,21.50
2018-09-04T10:15:28.287Z,21.50
2018-09-04T10:17:57.067Z,21.50
2018-09-04T10:20:25.623Z,21.60
2018-09-04T10:22:54.272Z,21.60
2018-09-04T10:25:22.824Z,21.50
2018-09-04T10:27:51.347Z,21.50
2018-09-04T10:30:19.960Z,21.30
2018-09-04T10:32:52.609Z,21.30
2018-09-04T10:35:21.889Z,21.30
2018-09-04T10:37:51.041Z,21.60
2018-09-04T10:40:25.041Z,21.70
2018-09-04T10:42:53.576Z,21.80
2018-09-04T10:45:27.388Z,21.80
2018-09-04T10:47:55.941Z,21.70
2018-09-04T10:50:24.513Z,21.80
2018-09-04T10:52:53.082Z,21.80
2018-09-04T10:55:21.796Z,21.90
2018-09-04T10:57:50.497Z,21.90
2018-09-04T11:00:19.003Z,21.90
2018-09-04T11:02:47.593Z,21.90
2018-09-04T11:05:16.268Z,22.10
2018-09-04T11:07:44.849Z,22.10
2018-09-04T11:10:13.408Z,22.20
2018-09-04T11:12:42.063Z,22.30
2018-09-04T11:15:10.623Z,22.50
2018-09-04T11:17:39.191Z,22.40
2018-09-04T11:20:07.816Z,22.50
2018-09-04T11:22:36.345Z,22.60
2018-09-04T11:25:05.138Z,22.60
2018-09-04T11:27:33.674Z,22.80
2018-09-04T11:30:02.313Z,22.80
2018-09-04T11:32:30.860Z,22.90
2018-09-04T11:34:59.369Z,22.70
2018-09-04T11:37:27.989Z,22.80
2018-09-04T11:39:56.598Z,22.80
2018-09-04T11:42:25.154Z,22.90
2018-09-04T11:44:53.757Z,22.90
2018-09-04T11:47:22.337Z,22.90
2018-09-04T11:49:50.944Z,23.00
2018-09-04T11:52:19.551Z,23.10
2018-09-04T11:54:48.183Z,23.20
2018-09-04T11:57:16.830Z,23.30
2018-09-04T11:59:45.551Z,23.20
2018-09-04T12:02:44.977Z,23.20
2018-09-04T12:05:13.560Z,23.20
2018-09-04T12:07:42.144Z,23.20
2018-09-04T12:10:10.736Z,23.30
2018-09-04T12:12:39.440Z,23.30
2018-09-04T12:15:07.885Z,23.20
2018-09-04T12:17:36.452Z,23.00
2018-09-04T12:20:09.726Z,23.30
2018-09-04T12:22:38.340Z,23.50
2018-09-04T12:25:06.994Z,23.70
2018-09-04T12:27:35.560Z,23.80
2018-09-04T12:30:04.169Z,23.80
2018-09-04T12:32:32.744Z,23.60
2018-09-04T12:35:01.284Z,23.60
2018-09-04T12:37:29.909Z,23.50
2018-09-04T12:39:58.633Z,23.20
2018-09-04T12:42:27.990Z,23.20
2018-09-04T12:44:58.351Z,23.10
2018-09-04T12:47:26.957Z,23.30
2018-09-04T12:49:55.929Z,23.30
2018-09-04T12:52:24.448Z,23.40
2018-09-04T12:54:53.091Z,23.70
2018-09-04T12:57:21.675Z,23.80
2018-09-04T12:59:50.374Z,23.90
2018-09-04T13:02:18.899Z,24.00
2018-09-04T13:04:47.486Z,24.20
2018-09-04T13:07:16.036Z,24.60
2018-09-04T13:09:44.575Z,24.80
2018-09-04T13:12:14.106Z,24.70
2018-09-04T13:14:42.746Z,24.60
2018-09-04T13:17:11.317Z,24.90
2018-09-04T13:19:39.956Z,25.00
2018-09-04T13:22:08.532Z,25.00
2018-09-04T13:24:37.105Z,25.10
2018-09-04T13:27:05.670Z,25.20
2018-09-04T13:29:34.349Z,25.20
2018-09-04T13:32:02.942Z,25.30
2018-09-04T13:34:31.658Z,25.30
2018-09-04T13:37:00.116Z,25.40
2018-09-04T13:39:28.679Z,25.50
2018-09-04T13:41:57.236Z,25.70
2018-09-04T13:44:25.808Z,25.60
2018-09-04T13:46:54.485Z,25.60
2018-09-04T13:49:23.204Z,25.60
2018-09-04T13:51:51.687Z,25.70
2018-09-04T13:54:20.423Z,25.80
2018-09-04T13:56:48.991Z,25.60
2018-09-04T13:59:17.731Z,25.60
2018-09-04T14:01:46.357Z,25.50
2018-09-04T14:04:14.914Z,25.50
2018-09-04T14:06:43.675Z,25.70
2018-09-04T14:09:12.256Z,25.90
2018-09-04T14:11:40.888Z,26.00
2018-09-04T14:14:09.453Z,26.10
2018-09-04T14:16:43.155Z,26.30
2018-09-04T14:19:07.383Z,26.40
2018-09-04T14:21:35.912Z,26.50
2018-09-04T14:24:04.506Z,26.70
2018-09-04T14:26:33.094Z,26.70
2018-09-04T14:29:08.591Z,26.70
2018-09-04T14:31:30.231Z,26.60
2018-09-04T14:33:58.769Z,26.50
2018-09-04T14:37:03.724Z,26.50
2018-09-04T14:39:32.137Z,26.40
2018-09-04T14:42:00.726Z,26.50
2018-09-04T14:44:29.328Z,26.70
2018-09-04T14:46:58.001Z,26.80
2018-09-04T14:49:26.610Z,27.10
2018-09-04T14:51:55.164Z,27.30
2018-09-04T14:54:23.813Z,27.50
2018-09-04T14:56:52.512Z,27.60
2018-09-04T14:59:21.392Z,27.30
2018-09-04T15:01:50.003Z,27.20
2018-09-04T15:04:18.537Z,27.20
2018-09-04T15:06:47.131Z,27.50
2018-09-04T15:09:15.724Z,27.50
2018-09-04T15:11:44.371Z,27.60
2018-09-04T15:14:12.912Z,27.60
2018-09-04T15:16:41.496Z,27.70
2018-09-04T15:19:10.048Z,27.90
2018-09-04T15:21:38.592Z,28.00
2018-09-04T15:24:07.168Z,28.00
2018-09-04T15:26:35.726Z,28.00
2018-09-04T15:29:04.389Z,27.70
2018-09-04T15:31:33.091Z,27.80
2018-09-04T15:34:01.676Z,27.50
2018-09-04T15:36:30.256Z,27.10
2018-09-04T15:38:58.801Z,26.60
2018-09-04T15:41:27.384Z,26.30
2018-09-04T15:43:55.930Z,25.80
2018-09-04T15:46:24.440Z,25.60
2018-09-04T15:48:58.395Z,25.30
2018-09-04T15:51:27.322Z,25.20
2018-09-04T15:53:55.870Z,25.00
2018-09-04T15:56:24.419Z,24.90
2018-09-04T15:58:52.973Z,24.90
2018-09-04T16:01:21.509Z,24.70
2018-09-04T16:03:50.282Z,24.60
2018-09-04T16:06:18.838Z,24.60
2018-09-04T16:08:48.211Z,24.50
2018-09-04T16:11:16.783Z,24.40
2018-09-04T16:13:45.290Z,24.30
2018-09-04T16:16:13.853Z,24.20
2018-09-04T16:18:42.406Z,24.00
2018-09-04T16:21:10.980Z,23.90
2018-09-04T16:23:39.536Z,23.60
2018-09-04T16:26:08.075Z,23.50
2018-09-04T16:28:37.201Z,23.40
2018-09-04T16:31:05.844Z,23.40
2018-09-04T16:33:34.420Z,23.40
2018-09-04T16:36:02.931Z,23.40
2018-09-04T16:38:31.619Z,23.40
2018-09-04T16:41:00.154Z,23.20
2018-09-04T16:43:28.743Z,23.20
2018-09-04T16:45:57.513Z,23.20
2018-09-04T16:48:26.141Z,23.20
2018-09-04T16:50:54.736Z,23.10
2018-09-04T16:53:23.326Z,23.10
2018-09-04T16:55:51.868Z,23.00
2018-09-04T16:58:20.388Z,22.90
2018-09-04T17:00:48.953Z,22.90
2018-09-04T17:03:17.676Z,22.90
2018-09-04T17:05:46.248Z,22.90
2018-09-04T17:08:14.786Z,22.80
2018-09-04T17:10:43.364Z,22.70
2018-09-04T17:13:11.972Z,22.60
2018-09-04T17:15:40.628Z,22.60
2018-09-04T17:18:09.158Z,22.50
2018-09-04T17:20:37.700Z,22.50
2018-09-04T17:23:06.448Z,22.40
2018-09-04T17:25:35.009Z,22.30
2018-09-04T17:28:03.720Z,22.20
2018-09-04T17:30:32.322Z,22.20
2018-09-04T17:33:00.969Z,22.10
2018-09-04T17:35:29.520Z,22.00
2018-09-04T17:37:58.096Z,21.90
2018-09-04T17:40:26.728Z,21.90
2018-09-04T17:42:55.313Z,21.80
2018-09-04T17:45:23.867Z,21.70
2018-09-04T17:47:53.018Z,21.60
2018-09-04T17:50:21.573Z,21.50
2018-09-04T17:52:50.189Z,21.60
2018-09-04T17:55:18.731Z,21.60
2018-09-04T17:57:47.306Z,21.50
2018-09-04T18:00:15.946Z,21.40
2018-09-04T18:02:44.484Z,21.40
2018-09-04T18:05:13.032Z,21.40
2018-09-04T18:07:41.575Z,21.30
2018-09-04T18:10:10.165Z,21.20
2018-09-04T18:12:38.670Z,21.20
2018-09-04T18:15:07.440Z,21.10
2018-09-04T18:17:35.989Z,21.10
2018-09-04T18:20:04.655Z,20.90
2018-09-04T18:22:33.229Z,20.80
2018-09-04T18:25:01.789Z,20.80
2018-09-04T18:27:30.352Z,20.80
2018-09-04T18:29:58.920Z,20.80
2018-09-04T18:32:27.567Z,20.70
2018-09-04T18:34:56.126Z,20.60
2018-09-04T18:37:24.695Z,20.50
2018-09-04T18:39:53.309Z,20.50
2018-09-04T18:42:21.912Z,20.40
2018-09-04T18:44:50.514Z,20.40
2018-09-04T18:47:19.049Z,20.40
2018-09-04T18:49:47.581Z,20.30
2018-09-04T18:52:16.202Z,20.30
2018-09-04T18:54:44.703Z,20.30
2018-09-04T18:57:13.246Z,20.20
2018-09-04T18:59:41.785Z,20.20
2018-09-04T19:02:10.355Z,20.20
2018-09-04T19:04:38.898Z,20.20
2018-09-04T19:07:07.468Z,20.30
2018-09-04T19:09:36.071Z,20.20
2018-09-04T19:12:04.618Z,20.10
2018-09-04T19:14:33.199Z,20.10
2018-09-04T19:17:01.786Z,20.10
2018-09-04T19:19:30.385Z,20.00
2018-09-04T19:21:59.020Z,20.00
2018-09-04T19:24:27.629Z,19.90
2018-09-04T19:26:56.203Z,19.90
2018-09-04T19:29:24.705Z,19.80
2018-09-04T19:31:53.306Z,19.70
2018-09-04T19:34:21.915Z,19.70
2018-09-04T19:36:50.463Z,19.70
2018-09-04T19:39:19.037Z,19.70
2018-09-04T19:41:47.568Z,19.60
2018-09-04T19:44:16.186Z,19.60
2018-09-04T19:46:44.749Z,19.60
2018-09-04T19:49:13.343Z,19.60
2018-09-04T19:51:41.936Z,19.50
2018-09-04T19:54:10.536Z,19.50
2018-09-04T19:56:39.197Z,19.40
2018-09-04T19:59:07.368Z,19.30
2018-09-04T20:01:35.952Z,19.30
2018-09-04T20:04:04.574Z,19.20
2018-09-04T20:06:33.180Z,19.10
2018-09-04T20:09:01.739Z,19.10
2018-09-04T20:11:30.319Z,19.10
2018-09-04T20:13:59.027Z,19.10
2018-09-04T20:16:27.592Z,19.00
2018-09-04T20:18:56.189Z,18.90
2018-09-04T20:21:24.773Z,18.90
2018-09-04T20:23:53.359Z,18.90
2018-09-04T20:26:21.873Z,18.90
2018-09-04T20:28:50.529Z,18.80
2018-09-04T20:31:19.024Z,18.70
2018-09-04T20:33:47.553Z,18.70
2018-09-04T20:36:16.091Z,18.70
2018-09-04T20:38:44.640Z,18.60
2018-09-04T20:41:13.236Z,18.60
2018-09-04T20:43:41.828Z,18.50
2018-09-04T20:46:10.351Z,18.50
2018-09-04T20:48:38.895Z,18.40
2018-09-04T20:51:07.475Z,18.30
2018-09-04T20:53:36.143Z,18.20
2018-09-04T20:56:04.711Z,18.20
2018-09-04T20:58:44.626Z,18.10
2018-09-04T21:01:24.220Z,18.10
2018-09-04T21:04:03.982Z,18.00
2018-09-04T21:06:45.988Z,17.90
2018-09-04T21:09:28.400Z,17.80
2018-09-04T21:11:56.932Z,17.90
2018-09-04T21:14:25.783Z,17.90
2018-09-04T21:16:54.406Z,18.00
2018-09-04T21:19:22.980Z,18.10
2018-09-04T21:21:51.531Z,18.10
2018-09-04T21:24:20.142Z,18.10
2018-09-04T21:26:48.788Z,18.10
2018-09-04T21:29:17.324Z,18.00
2018-09-04T21:31:45.901Z,18.00
2018-09-04T21:34:14.448Z,18.00
2018-09-04T21:36:42.983Z,18.00
2018-09-04T21:39:11.586Z,17.90
2018-09-04T21:41:40.145Z,17.70
2018-09-04T21:44:08.767Z,17.60
2018-09-04T21:46:37.330Z,17.50
2018-09-04T21:49:05.890Z,17.50
2018-09-04T21:51:34.445Z,17.40
2018-09-04T21:54:03.014Z,17.40
2018-09-04T21:56:31.553Z,17.40
2018-09-04T21:59:00.125Z,17.40
2018-09-04T22:01:28.692Z,17.40
2018-09-04T22:03:57.221Z,17.40
2018-09-04T22:06:25.807Z,17.50
2018-09-04T22:08:54.377Z,17.50
2018-09-04T22:11:22.893Z,17.50
2018-09-04T22:13:51.417Z,17.60
2018-09-04T22:16:19.938Z,17.60
2018-09-04T22:18:48.566Z,17.50
2018-09-04T22:21:17.188Z,17.50
2018-09-04T22:23:45.841Z,17.50
2018-09-04T22:26:14.394Z,17.40
2018-09-04T22:28:42.942Z,17.20
2018-09-04T22:31:11.521Z,17.20
2018-09-04T22:33:40.024Z,17.10
2018-09-04T22:36:08.678Z,17.10
2018-09-04T22:38:37.324Z,17.00
2018-09-04T22:41:05.894Z,16.90
2018-09-04T22:43:34.507Z,16.90
2018-09-04T22:46:03.123Z,16.90
2018-09-04T22:48:31.678Z,16.90
2018-09-04T22:51:05.423Z,16.80
2018-09-04T22:53:33.950Z,16.70
2018-09-04T22:56:02.461Z,16.70
2018-09-04T22:58:31.043Z,16.60
2018-09-04T23:00:59.563Z,16.60
2018-09-04T23:03:28.145Z,16.50
2018-09-04T23:05:56.643Z,16.50
2018-09-04T23:08:26.539Z,16.50
2018-09-04T23:10:55.184Z,16.50
2018-09-04T23:13:23.856Z,16.50
2018-09-04T23:15:52.437Z,16.40
2018-09-04T23:18:20.963Z,16.40
2018-09-04T23:20:49.554Z,16.40
2018-09-04T23:23:18.106Z,16.40
2018-09-04T23:25:46.702Z,16.50
2018-09-04T23:28:15.253Z,16.40
2018-09-04T23:30:43.901Z,16.30
2018-09-04T23:33:12.452Z,16.30
2018-09-04T23:35:40.989Z,16.30
2018-09-04T23:38:09.512Z,16.20
2018-09-04T23:40:38.066Z,16.20
2018-09-04T23:43:06.605Z,16.20
2018-09-04T23:45:35.144Z,16.20
2018-09-04T23:48:03.757Z,16.20
2018-09-04T23:50:33.122Z,16.20
2018-09-04T23:53:01.664Z,16.20
2018-09-04T23:55:30.255Z,16.20
2018-09-04T23:57:58.819Z,16.10
